Time;durP1;ratioP1;P1;durP2;ratioP2;P2;SDS_P1;SDS_P2;PMS_P1;PMS_P2;Temp;Humidity;BMP_temperature;BMP_pressure;BME280_temperature;BME280_humidity;BME280_pressure;Samples;Min_cycle;Max_cycle;Signal;HPM_P1;HPM_P2
2022/11/30 03:00:47;;;;;;;36.97;32.70;;;6.30;99.90;;;;;;5774552;23;20235;-80
2022/11/30 03:03:14;;;;;;;40.60;34.53;;;6.40;99.90;;;;;;4905366;29;20219;-80
2022/11/30 03:05:41;;;;;;;36.23;31.93;;;6.40;99.90;;;;;;4909191;29;20197;-80
2022/11/30 03:08:07;;;;;;;34.60;31.03;;;6.40;99.90;;;;;;4904657;29;20219;-81
2022/11/30 03:10:34;;;;;;;34.77;31.17;;;6.40;99.90;;;;;;4908367;29;20225;-80
2022/11/30 03:13:01;;;;;;;34.07;30.43;;;6.40;99.90;;;;;;4915668;29;20202;-81
2022/11/30 03:15:28;;;;;;;35.57;30.03;;;6.40;99.90;;;;;;4907291;29;20201;-81
2022/11/30 03:17:56;;;;;;;32.90;29.50;;;6.40;99.90;;;;;;4905483;29;20199;-81
2022/11/30 03:20:23;;;;;;;35.77;31.90;;;6.40;99.90;;;;;;4900847;29;20208;-81
2022/11/30 03:22:50;;;;;;;37.70;33.70;;;6.40;99.90;;;;;;4909420;29;20221;-81
2022/11/30 03:25:17;;;;;;;37.67;33.00;;;6.40;99.90;;;;;;4903784;29;20233;-81
2022/11/30 03:27:44;;;;;;;36.47;32.03;;;6.40;99.90;;;;;;4906424;29;20206;-81
2022/11/30 03:30:11;;;;;;;35.07;31.13;;;6.40;99.90;;;;;;4907003;29;20560;-80
2022/11/30 03:32:38;;;;;;;34.50;30.83;;;6.40;99.90;;;;;;4899619;29;20214;-81
2022/11/30 03:35:07;;;;;;;34.97;31.27;;;6.40;99.90;;;;;;4905550;29;20240;-80
2022/11/30 03:37:34;;;;;;;32.80;29.57;;;6.40;99.90;;;;;;4905799;29;20203;-81
2022/11/30 03:40:01;;;;;;;36.33;32.60;;;6.40;99.90;;;;;;4909675;29;20207;-80
2022/11/30 03:42:28;;;;;;;34.03;30.57;;;6.40;99.90;;;;;;4894441;29;20626;-79
2022/11/30 03:44:54;;;;;;;36.60;32.53;;;6.40;99.90;;;;;;4901160;29;20676;-81
2022/11/30 03:47:21;;;;;;;34.40;30.80;;;6.40;99.90;;;;;;4908310;29;20660;-80
2022/11/30 03:49:48;;;;;;;36.60;31.97;;;6.50;99.90;;;;;;4905923;29;20202;-81
2022/11/30 03:52:16;;;;;;;37.83;33.43;;;6.40;99.90;;;;;;4906606;29;20695;-79
2022/11/30 03:54:43;;;;;;;36.23;32.33;;;6.40;99.90;;;;;;4905576;29;20204;-79
2022/11/30 03:57:10;;;;;;;35.63;31.83;;;6.30;99.90;;;;;;4908154;29;20215;-80
2022/11/30 03:59:37;;;;;;;36.40;31.60;;;6.30;99.90;;;;;;4891568;29;20222;-80
2022/11/30 04:02:04;;;;;;;35.70;31.80;;;6.40;99.90;;;;;;4894770;29;20291;-80
2022/11/30 04:04:30;;;;;;;36.40;32.53;;;6.40;99.90;;;;;;4894620;29;20592;-80
2022/11/30 04:06:57;;;;;;;33.03;29.73;;;6.40;99.90;;;;;;4888568;29;20207;-80
2022/11/30 04:09:25;;;;;;;36.17;32.57;;;6.40;99.90;;;;;;4896037;29;20214;-80
2022/11/30 04:11:52;;;;;;;34.00;30.60;;;6.30;99.90;;;;;;4896261;29;20222;-80
2022/11/30 04:14:19;;;;;;;36.97;32.83;;;6.30;99.90;;;;;;4900794;29;20699;-80
2022/11/30 04:16:46;;;;;;;36.10;32.13;;;6.30;99.90;;;;;;4888589;29;20203;-82
2022/11/30 04:19:13;;;;;;;34.30;30.80;;;6.30;99.90;;;;;;4895153;29;20210;-82
2022/11/30 04:21:40;;;;;;;36.20;32.30;;;6.40;99.90;;;;;;4906436;29;20224;-81
2022/11/30 04:24:08;;;;;;;38.40;34.30;;;6.40;99.90;;;;;;4897919;29;20232;-82
2022/11/30 04:26:36;;;;;;;41.57;34.50;;;6.40;99.90;;;;;;4908927;29;20209;-81
2022/11/30 04:29:04;;;;;;;34.27;30.60;;;6.30;99.90;;;;;;4904406;29;20212;-82
2022/11/30 04:31:30;;;;;;;37.17;33.57;;;6.30;99.90;;;;;;4907531;29;20256;-82
2022/11/30 04:33:57;;;;;;;35.43;31.80;;;6.30;99.90;;;;;;4905894;29;20210;-81
2022/11/30 04:36:24;;;;;;;35.03;31.23;;;6.40;99.90;;;;;;4903096;29;20214;-82
2022/11/30 04:38:51;;;;;;;35.07;31.40;;;6.40;99.90;;;;;;4907894;29;20705;-83
2022/11/30 04:41:18;;;;;;;34.93;31.40;;;6.40;99.90;;;;;;4908486;29;20298;-83
2022/11/30 04:43:47;;;;;;;36.13;32.50;;;6.40;99.90;;;;;;4909259;29;20202;-81
2022/11/30 04:46:13;;;;;;;36.40;32.57;;;6.40;99.90;;;;;;4910323;29;20195;-81
2022/11/30 04:48:40;;;;;;;36.73;32.80;;;6.40;99.90;;;;;;4910915;29;20214;-79
2022/11/30 04:51:08;;;;;;;34.63;31.03;;;6.40;99.90;;;;;;4910063;29;20461;-80
2022/11/30 04:53:37;;;;;;;34.23;30.57;;;6.40;99.90;;;;;;4907667;29;20202;-79
2022/11/30 04:56:06;;;;;;;37.00;33.10;;;6.40;99.90;;;;;;4911013;29;20209;-80
2022/11/30 04:58:32;;;;;;;34.90;30.90;;;6.40;99.90;;;;;;4914035;29;20222;-80
2022/11/30 05:01:01;;;;;;;36.33;32.37;;;6.40;99.90;;;;;;4914981;29;20575;-80
2022/11/30 05:03:27;;;;;;;35.20;31.53;;;6.40;99.90;;;;;;4899088;29;20579;-81
2022/11/30 05:05:54;;;;;;;34.63;30.93;;;6.40;99.90;;;;;;4906309;29;20274;-80
2022/11/30 05:08:21;;;;;;;35.37;31.23;;;6.40;99.90;;;;;;4909316;29;20211;-80
2022/11/30 05:10:52;;;;;;;33.53;30.07;;;6.40;99.90;;;;;;4909072;29;20223;-81
2022/11/30 05:13:19;;;;;;;35.50;31.40;;;6.30;99.90;;;;;;4904826;29;20615;-80
2022/11/30 05:15:46;;;;;;;34.93;31.30;;;6.30;99.90;;;;;;4905697;29;20207;-80
2022/11/30 05:18:15;;;;;;;34.13;30.90;;;6.30;99.90;;;;;;4909575;29;20214;-80
2022/11/30 05:20:46;;;;;;;32.73;29.43;;;6.30;99.90;;;;;;4908818;29;20225;-80
2022/11/30 05:23:14;;;;;;;33.73;30.23;;;6.30;99.90;;;;;;4909503;29;20214;-80
2022/11/30 05:25:41;;;;;;;33.70;30.10;;;6.30;99.90;;;;;;4908999;29;20581;-80
2022/11/30 05:28:08;;;;;;;31.87;28.87;;;6.40;99.90;;;;;;4910929;29;20208;-80
2022/11/30 05:30:35;;;;;;;32.80;29.40;;;6.40;99.90;;;;;;4905369;29;20205;-80
2022/11/30 05:33:01;;;;;;;31.43;28.57;;;6.40;99.90;;;;;;4903857;29;20599;-80
2022/11/30 05:35:30;;;;;;;31.93;29.23;;;6.40;99.90;;;;;;4910970;29;20206;-80
2022/11/30 05:37:57;;;;;;;31.73;28.63;;;6.40;99.90;;;;;;4908022;29;20206;-80
2022/11/30 05:40:26;;;;;;;32.67;29.37;;;6.40;99.90;;;;;;4910928;29;20202;-80
2022/11/30 05:42:55;;;;;;;32.40;29.27;;;6.40;99.90;;;;;;4907952;29;20194;-80
2022/11/30 05:45:22;;;;;;;30.63;27.83;;;6.40;99.90;;;;;;4904411;29;20262;-80
2022/11/30 05:47:49;;;;;;;32.53;29.30;;;6.40;99.90;;;;;;4905646;29;20729;-80
2022/11/30 05:50:16;;;;;;;31.53;28.37;;;6.40;99.90;;;;;;4905029;29;20209;-80
2022/11/30 05:52:44;;;;;;;31.20;28.33;;;6.40;99.90;;;;;;4910572;29;20236;-80
2022/11/30 05:55:11;;;;;;;30.70;27.90;;;6.30;99.90;;;;;;4906738;29;20575;-81
2022/11/30 05:57:39;;;;;;;32.87;29.67;;;6.40;99.90;;;;;;4910266;29;20201;-80
2022/11/30 06:00:08;;;;;;;31.23;28.33;;;6.40;99.90;;;;;;4907993;29;20206;-80
2022/11/30 06:02:41;;;;;;;31.27;28.37;;;6.40;99.90;;;;;;4902338;29;20249;-80
2022/11/30 06:05:09;;;;;;;30.63;27.73;;;6.30;99.90;;;;;;4907992;29;20213;-81
2022/11/30 06:07:35;;;;;;;30.53;27.83;;;6.30;99.90;;;;;;4905108;29;20675;-81
2022/11/30 06:10:04;;;;;;;30.63;27.93;;;6.30;99.90;;;;;;4902121;29;20271;-79
2022/11/30 06:12:31;;;;;;;29.27;26.57;;;6.30;99.90;;;;;;4910152;29;20218;-80
2022/11/30 06:14:58;;;;;;;29.67;26.80;;;6.30;99.90;;;;;;4906270;29;20219;-80
2022/11/30 06:17:24;;;;;;;29.43;26.67;;;6.30;99.90;;;;;;4908988;29;20198;-81
2022/11/30 06:19:51;;;;;;;30.57;27.80;;;6.30;99.90;;;;;;4906623;29;20253;-80
2022/11/30 06:22:18;;;;;;;29.90;27.10;;;6.40;99.90;;;;;;4909663;29;20222;-80
2022/11/30 06:24:45;;;;;;;28.30;25.87;;;6.30;99.90;;;;;;4904723;29;20215;-80
2022/11/30 06:27:13;;;;;;;28.97;26.37;;;6.30;99.90;;;;;;4909807;29;20276;-80
2022/11/30 06:29:40;;;;;;;29.93;27.03;;;6.30;99.90;;;;;;4908025;29;20670;-80
2022/11/30 06:32:07;;;;;;;30.03;26.97;;;6.30;99.90;;;;;;4904114;29;20231;-80
2022/11/30 06:34:34;;;;;;;28.80;26.23;;;6.30;99.90;;;;;;4907156;29;20200;-80
2022/11/30 06:37:01;;;;;;;29.63;27.03;;;6.30;99.90;;;;;;4905804;29;20205;-80
2022/11/30 06:39:28;;;;;;;29.10;26.37;;;6.30;99.90;;;;;;4905380;29;20582;-80
2022/11/30 06:41:55;;;;;;;29.23;26.57;;;6.30;99.90;;;;;;4906542;29;20223;-80
2022/11/30 06:44:23;;;;;;;28.80;26.30;;;6.30;99.90;;;;;;4906219;29;20210;-80
2022/11/30 06:46:50;;;;;;;28.23;25.67;;;6.40;99.90;;;;;;4907370;29;20208;-80
2022/11/30 06:49:17;;;;;;;30.27;27.47;;;6.30;99.90;;;;;;4904647;29;20592;-80
2022/11/30 06:51:43;;;;;;;30.70;27.90;;;6.40;99.90;;;;;;4900515;29;20214;-80
2022/11/30 06:54:10;;;;;;;29.67;26.97;;;6.40;99.90;;;;;;4907326;29;20201;-80
2022/11/30 06:56:37;;;;;;;29.93;27.27;;;6.40;99.90;;;;;;4915777;29;20196;-80
2022/11/30 06:59:04;;;;;;;30.43;27.63;;;6.40;99.90;;;;;;4908778;29;20297;-80
2022/11/30 07:01:32;;;;;;;30.57;27.57;;;6.40;99.90;;;;;;4907854;29;20226;-80
2022/11/30 07:03:59;;;;;;;31.07;28.13;;;6.40;99.90;;;;;;4911458;29;20205;-80
2022/11/30 07:06:26;;;;;;;29.40;26.63;;;6.40;99.90;;;;;;4906105;29;20209;-80
2022/11/30 07:08:53;;;;;;;28.67;26.07;;;6.40;99.90;;;;;;4907666;29;20293;-80
2022/11/30 07:11:19;;;;;;;28.53;25.93;;;6.30;99.90;;;;;;4902811;29;20643;-80
2022/11/30 07:13:46;;;;;;;26.20;23.80;;;6.30;99.90;;;;;;4905123;29;20203;-80
2022/11/30 07:16:13;;;;;;;25.80;23.57;;;6.30;99.90;;;;;;4907218;29;20206;-80
2022/11/30 07:18:41;;;;;;;27.83;25.23;;;6.40;99.90;;;;;;4904581;29;20203;-80
2022/11/30 07:21:09;;;;;;;26.77;24.37;;;6.40;99.90;;;;;;4899835;29;20236;-79
2022/11/30 07:26:21;;;;;;;27.10;24.50;;;6.40;99.90;;;;;;4906308;29;20212;-80
2022/11/30 07:28:53;;;;;;;26.40;24.17;;;6.40;99.90;;;;;;4904560;29;20208;-80
2022/11/30 07:31:22;;;;;;;26.40;24.17;;;6.50;99.90;;;;;;4900208;29;20231;-80
2022/11/30 07:33:51;;;;;;;26.83;24.37;;;6.50;99.90;;;;;;4908771;29;20205;-80
2022/11/30 07:36:20;;;;;;;27.83;25.53;;;6.50;99.90;;;;;;4903012;29;20203;-80
2022/11/30 07:38:47;;;;;;;27.20;24.70;;;6.50;99.90;;;;;;4906872;29;20552;-80
2022/11/30 07:41:15;;;;;;;26.83;24.43;;;6.40;99.90;;;;;;4905702;29;20227;-79
2022/11/30 07:43:41;;;;;;;26.30;23.90;;;6.40;99.90;;;;;;4906222;29;20199;-80
2022/11/30 07:46:11;;;;;;;27.23;24.83;;;6.40;99.90;;;;;;4908255;29;20214;-80
2022/11/30 07:48:38;;;;;;;26.50;24.10;;;6.40;99.90;;;;;;4901815;29;20205;-80
2022/11/30 07:51:08;;;;;;;26.53;24.33;;;6.30;99.90;;;;;;4907710;29;20789;-79
2022/11/30 07:53:35;;;;;;;26.23;24.03;;;6.30;99.90;;;;;;4907271;29;20221;-80
2022/11/30 07:56:03;;;;;;;26.40;24.00;;;6.30;99.90;;;;;;4905769;29;20679;-80
2022/11/30 07:58:31;;;;;;;25.80;23.47;;;6.40;99.90;;;;;;4897873;29;20193;-80
2022/11/30 08:01:02;;;;;;;25.00;22.80;;;6.40;99.90;;;;;;4904013;29;20268;-80
2022/11/30 08:03:29;;;;;;;25.10;23.00;;;6.40;99.90;;;;;;4902513;29;20302;-80
2022/11/30 08:06:00;;;;;;;24.63;22.43;;;6.50;99.90;;;;;;4904945;29;20209;-80
2022/11/30 08:08:31;;;;;;;25.63;23.33;;;6.50;99.90;;;;;;4898838;29;20278;-78
2022/11/30 08:10:58;;;;;;;25.47;23.20;;;6.60;99.90;;;;;;4905998;29;20217;-79
2022/11/30 08:13:25;;;;;;;23.97;21.87;;;6.60;99.90;;;;;;4899897;29;20211;-80
2022/11/30 08:15:52;;;;;;;24.60;22.50;;;6.70;99.90;;;;;;4897971;29;20268;-80
2022/11/30 08:18:19;;;;;;;23.93;21.93;;;6.80;99.90;;;;;;4905890;29;20230;-79
2022/11/30 08:20:46;;;;;;;24.17;22.27;;;6.80;99.90;;;;;;4907767;29;20222;-79
2022/11/30 08:23:13;;;;;;;21.93;20.07;;;6.90;99.90;;;;;;4906943;29;20203;-80
2022/11/30 08:25:41;;;;;;;22.83;20.73;;;7.00;99.90;;;;;;4906722;29;20210;-80
2022/11/30 08:28:08;;;;;;;22.37;20.43;;;7.10;99.90;;;;;;4905661;29;20203;-80
2022/11/30 08:30:35;;;;;;;22.57;20.67;;;7.10;99.90;;;;;;4908382;29;20199;-79
2022/11/30 08:33:02;;;;;;;23.57;21.47;;;7.10;99.90;;;;;;4908086;29;20222;-79
2022/11/30 08:35:28;;;;;;;23.87;21.70;;;7.10;99.90;;;;;;4900083;29;20225;-78
2022/11/30 08:37:55;;;;;;;24.80;22.53;;;7.10;99.90;;;;;;4911279;29;20202;-80
2022/11/30 08:40:22;;;;;;;24.13;21.93;;;7.10;99.90;;;;;;4903962;29;20287;-80
2022/11/30 08:42:50;;;;;;;24.53;22.47;;;7.10;99.90;;;;;;4903113;29;20227;-80
2022/11/30 08:45:17;;;;;;;22.97;20.87;;;7.10;99.90;;;;;;4911934;29;20203;-79
2022/11/30 08:47:44;;;;;;;25.30;23.00;;;7.10;99.90;;;;;;4901663;29;20585;-80
2022/11/30 08:50:11;;;;;;;24.63;22.33;;;7.10;99.90;;;;;;4898891;29;20581;-79
2022/11/30 08:52:38;;;;;;;23.87;21.73;;;7.00;99.90;;;;;;4906810;29;20600;-80
2022/11/30 08:55:06;;;;;;;23.73;21.70;;;7.00;99.90;;;;;;4898680;29;20202;-79
2022/11/30 08:57:33;;;;;;;24.27;21.90;;;7.00;99.90;;;;;;4905505;29;20238;-79
2022/11/30 09:00:02;;;;;;;24.93;22.53;;;7.00;99.90;;;;;;4907425;29;20341;-80
2022/11/30 09:02:28;;;;;;;24.07;21.87;;;7.00;99.90;;;;;;4900737;29;20242;-79
2022/11/30 09:04:55;;;;;;;24.07;21.97;;;6.90;99.90;;;;;;4910158;29;20257;-80
2022/11/30 09:07:22;;;;;;;24.70;22.50;;;6.90;99.90;;;;;;4903565;29;20203;-80
2022/11/30 09:09:49;;;;;;;25.87;23.40;;;7.00;99.90;;;;;;4902863;29;20205;-79
2022/11/30 09:12:16;;;;;;;24.77;22.50;;;7.00;99.90;;;;;;4905497;29;20224;-80
2022/11/30 09:14:44;;;;;;;24.33;22.13;;;7.00;99.90;;;;;;4901855;29;20208;-80
2022/11/30 09:17:12;;;;;;;24.30;22.00;;;7.00;99.90;;;;;;4903312;29;20330;-79
2022/11/30 09:19:39;;;;;;;22.97;20.87;;;7.10;99.90;;;;;;4907500;29;20536;-79
2022/11/30 09:22:06;;;;;;;25.03;22.70;;;7.10;99.90;;;;;;4905955;29;20655;-79
2022/11/30 09:24:33;;;;;;;24.70;22.30;;;7.10;99.90;;;;;;4908797;29;20209;-79
2022/11/30 09:27:00;;;;;;;24.53;22.27;;;7.00;99.90;;;;;;4910955;29;20680;-80
2022/11/30 09:29:26;;;;;;;24.83;22.33;;;7.10;99.90;;;;;;4906544;29;20205;-79
2022/11/30 09:31:53;;;;;;;24.93;22.47;;;7.10;99.90;;;;;;4907826;29;20216;-80
2022/11/30 09:34:22;;;;;;;23.43;21.23;;;7.10;99.90;;;;;;4912049;29;20208;-79
2022/11/30 09:36:48;;;;;;;24.87;22.57;;;7.10;99.90;;;;;;4906004;29;20228;-79
2022/11/30 09:39:15;;;;;;;23.37;21.23;;;7.20;99.90;;;;;;4907900;29;20220;-79
2022/11/30 09:42:22;;;;;;;24.50;22.17;;;7.20;99.90;;;;;;4914217;29;20223;-77
2022/11/30 09:44:59;;;;;;;23.97;21.77;;;7.20;99.90;;;;;;4910396;29;20203;-78
2022/11/30 09:47:46;;;;;;;24.70;22.40;;;7.30;99.90;;;;;;4912833;29;20195;-78
2022/11/30 09:50:18;;;;;;;24.50;22.23;;;7.30;99.90;;;;;;4911346;29;20267;-78
2022/11/30 09:52:49;;;;;;;24.23;21.80;;;7.30;99.90;;;;;;4899614;29;20223;-82
2022/11/30 09:55:24;;;;;;;23.37;21.27;;;7.30;99.90;;;;;;4912156;29;20676;-84
2022/11/30 09:57:54;;;;;;;22.63;20.60;;;7.40;99.90;;;;;;4908352;29;20211;-80
2022/11/30 10:00:24;;;;;;;23.10;21.10;;;7.40;99.90;;;;;;4906708;29;20211;-80
2022/11/30 10:02:52;;;;;;;23.77;21.77;;;7.50;99.90;;;;;;4902857;29;20252;-85
2022/11/30 10:05:23;;;;;;;22.47;20.50;;;7.60;99.90;;;;;;4908067;29;20208;-82
2022/11/30 10:08:03;;;;;;;22.77;20.87;;;7.70;99.90;;;;;;4907137;29;20201;-78
2022/11/30 10:10:38;;;;;;;23.43;21.43;;;7.70;99.90;;;;;;4901895;29;20207;-82
2022/11/30 10:13:19;;;;;;;22.37;20.47;;;7.70;99.90;;;;;;4903897;29;20315;-82
2022/11/30 10:15:59;;;;;;;24.57;22.33;;;7.70;99.90;;;;;;4906365;29;20206;-79
2022/11/30 10:18:36;;;;;;;21.87;19.97;;;7.60;99.90;;;;;;4902143;29;20203;-77
2022/11/30 10:21:16;;;;;;;22.00;20.10;;;7.70;99.90;;;;;;4910362;29;20589;-79
2022/11/30 10:24:00;;;;;;;24.73;22.43;;;7.90;99.90;;;;;;4908751;29;20207;-78
2022/11/30 10:26:33;;;;;;;23.27;21.13;;;7.90;99.90;;;;;;4904266;29;20227;-78
2022/11/30 10:29:07;;;;;;;23.23;21.23;;;7.90;99.90;;;;;;4904094;29;20220;-79
2022/11/30 10:31:36;;;;;;;23.47;21.47;;;7.90;99.90;;;;;;4915152;29;20224;-78
2022/11/30 10:34:12;;;;;;;23.30;21.20;;;7.80;99.90;;;;;;4906879;29;20227;-81
2022/11/30 10:36:44;;;;;;;22.90;20.97;;;7.80;99.90;;;;;;4898704;29;20661;-81
2022/11/30 10:39:17;;;;;;;25.10;22.70;;;7.80;99.90;;;;;;4906454;29;20205;-82
2022/11/30 10:41:50;;;;;;;25.40;23.17;;;7.70;99.90;;;;;;4908519;29;20227;-79
2022/11/30 10:44:22;;;;;;;24.30;22.00;;;7.70;99.90;;;;;;4904308;29;20291;-79
2022/11/30 10:46:56;;;;;;;24.07;21.97;;;7.60;99.90;;;;;;4905194;29;20268;-79
2022/11/30 10:49:25;;;;;;;24.27;22.07;;;7.60;99.90;;;;;;4907933;29;20711;-80
2022/11/30 10:51:57;;;;;;;24.93;22.70;;;7.50;99.90;;;;;;4906643;29;20352;-78
2022/11/30 10:54:24;;;;;;;24.20;22.10;;;7.50;99.90;;;;;;4910353;29;20224;-78
2022/11/30 10:56:51;;;;;;;25.53;23.20;;;7.60;99.90;;;;;;4914606;29;20200;-79
2022/11/30 10:59:22;;;;;;;25.77;23.43;;;7.40;99.90;;;;;;4906856;29;20258;-78
2022/11/30 11:01:51;;;;;;;25.47;23.00;;;7.30;99.90;;;;;;4911708;29;20226;-81
2022/11/30 11:04:21;;;;;;;24.97;22.70;;;7.20;99.90;;;;;;4907360;29;20204;-79
2022/11/30 11:06:52;;;;;;;23.60;21.40;;;7.30;99.90;;;;;;4905864;29;20196;-79
2022/11/30 11:09:41;;;;;;;23.97;21.77;;;7.50;99.90;;;;;;4910781;29;20223;-76
2022/11/30 11:12:15;;;;;;;24.83;22.50;;;7.50;99.90;;;;;;4907424;29;20702;-77
2022/11/30 11:14:42;;;;;;;25.03;22.43;;;7.50;99.90;;;;;;4914064;29;20226;-78
2022/11/30 11:17:22;;;;;;;25.93;23.43;;;7.50;99.90;;;;;;4911768;29;20211;-79
2022/11/30 11:19:50;;;;;;;24.23;21.87;;;7.50;99.90;;;;;;4908008;29;20211;-79
2022/11/30 11:22:20;;;;;;;24.47;22.03;;;7.60;99.90;;;;;;4902813;29;20232;-79
2022/11/30 11:24:49;;;;;;;24.20;22.10;;;7.70;99.90;;;;;;4904828;29;20494;-79
2022/11/30 11:27:27;;;;;;;23.10;21.00;;;7.70;99.90;;;;;;4907091;29;20693;-79
2022/11/30 11:30:01;;;;;;;24.30;22.00;;;7.80;99.90;;;;;;4906604;29;20205;-79
2022/11/30 11:32:29;;;;;;;26.53;23.90;;;7.70;99.90;;;;;;4898896;29;20220;-79
2022/11/30 11:34:58;;;;;;;25.40;22.93;;;7.70;99.90;;;;;;4906273;29;20324;-79
2022/11/30 11:37:27;;;;;;;26.37;23.70;;;7.50;99.90;;;;;;4901567;29;20684;-78
2022/11/30 11:40:02;;;;;;;24.77;22.43;;;7.50;99.90;;;;;;4904174;29;20260;-79
2022/11/30 11:42:32;;;;;;;25.67;23.17;;;7.50;99.90;;;;;;4902924;29;20227;-79
2022/11/30 11:45:00;;;;;;;24.90;22.23;;;7.50;99.90;;;;;;4910681;29;20206;-79
2022/11/30 11:47:32;;;;;;;24.43;22.03;;;7.50;99.90;;;;;;4896414;29;20235;-79
2022/11/30 11:50:22;;;;;;;24.93;22.27;;;7.50;99.90;;;;;;4903838;29;20209;-79
2022/11/30 11:52:50;;;;;;;24.77;22.30;;;7.50;99.90;;;;;;4897529;29;20212;-78
2022/11/30 11:55:20;;;;;;;25.00;22.53;;;7.50;99.90;;;;;;4906122;29;20208;-79
2022/11/30 11:57:54;;;;;;;26.23;23.50;;;7.60;99.90;;;;;;4910661;29;20201;-79
2022/11/30 12:00:24;;;;;;;24.50;22.23;;;7.60;99.90;;;;;;4908835;29;20204;-79
2022/11/30 12:02:57;;;;;;;25.23;22.87;;;7.70;99.90;;;;;;4905724;29;20219;-80
2022/11/30 12:05:29;;;;;;;25.07;22.60;;;7.80;99.90;;;;;;4912382;29;20200;-79
2022/11/30 12:08:07;;;;;;;25.70;23.10;;;7.90;99.90;;;;;;4908135;29;20192;-79
2022/11/30 12:10:41;;;;;;;25.10;22.60;;;7.90;99.90;;;;;;4896299;29;20249;-79
2022/11/30 12:13:15;;;;;;;28.10;25.30;;;7.90;99.90;;;;;;4903986;29;20319;-79
2022/11/30 12:15:55;;;;;;;28.63;25.73;;;7.90;99.90;;;;;;4908743;29;20199;-80
2022/11/30 12:18:24;;;;;;;28.03;25.30;;;7.90;99.90;;;;;;4911815;29;20208;-79
2022/11/30 12:20:58;;;;;;;28.17;25.33;;;7.80;99.90;;;;;;4906569;29;20227;-78
2022/11/30 12:23:42;;;;;;;28.27;25.40;;;7.90;99.90;;;;;;4906211;29;20564;-79
2022/11/30 12:26:18;;;;;;;29.10;26.27;;;7.80;99.90;;;;;;4906926;29;20203;-79
2022/11/30 12:28:55;;;;;;;27.87;25.17;;;7.70;99.90;;;;;;4905607;29;20208;-79
2022/11/30 12:31:29;;;;;;;28.27;25.47;;;7.70;99.90;;;;;;4908972;29;20667;-79
2022/11/30 12:34:12;;;;;;;28.83;25.70;;;7.70;99.90;;;;;;4907465;29;20219;-80
2022/11/30 12:36:51;;;;;;;28.80;25.90;;;7.70;99.90;;;;;;4897255;29;20204;-79
2022/11/30 12:39:28;;;;;;;28.90;25.80;;;7.60;99.90;;;;;;4901249;29;20603;-79
2022/11/30 12:42:00;;;;;;;29.30;26.20;;;7.60;99.90;;;;;;4902211;29;20219;-78
2022/11/30 12:44:39;;;;;;;27.67;25.00;;;7.60;99.90;;;;;;4896676;29;20654;-78
2022/11/30 12:47:21;;;;;;;29.20;26.27;;;7.60;99.90;;;;;;4905908;29;20200;-79
2022/11/30 12:50:03;;;;;;;28.87;25.97;;;7.50;99.90;;;;;;4905407;29;20214;-79
2022/11/30 12:52:43;;;;;;;29.43;26.37;;;7.50;99.90;;;;;;4899828;29;20218;-79
2022/11/30 12:55:24;;;;;;;28.77;25.70;;;7.50;99.90;;;;;;4908641;29;20585;-79
2022/11/30 12:58:02;;;;;;;28.17;25.43;;;7.50;99.90;;;;;;4902890;29;20200;-78
2022/11/30 13:00:35;;;;;;;26.77;24.07;;;7.30;99.90;;;;;;4906084;29;20211;-79
2022/11/30 13:03:41;;;;;;;25.93;23.50;;;7.30;99.90;;;;;;4913166;29;20238;-77
2022/11/30 13:06:12;;;;;;;28.47;24.93;;;7.30;99.90;;;;;;4908526;29;20207;-78
2022/11/30 13:08:53;;;;;;;26.17;23.77;;;7.30;99.90;;;;;;4914066;29;20202;-78
2022/11/30 13:11:24;;;;;;;28.27;25.50;;;7.20;99.90;;;;;;4914879;29;20238;-78
2022/11/30 13:13:56;;;;;;;24.87;22.63;;;7.20;99.90;;;;;;4909516;29;20220;-78
2022/11/30 13:16:24;;;;;;;26.43;23.87;;;7.20;99.90;;;;;;4905558;29;20298;-78
2022/11/30 13:18:53;;;;;;;25.83;23.27;;;7.10;99.90;;;;;;4907670;29;20669;-79
2022/11/30 13:21:26;;;;;;;26.10;23.70;;;7.10;99.90;;;;;;4910933;29;20232;-79
2022/11/30 13:24:04;;;;;;;26.67;24.07;;;7.10;99.90;;;;;;4910293;29;20205;-79
2022/11/30 13:26:37;;;;;;;23.40;21.10;;;7.10;99.90;;;;;;4903112;29;20222;-77
2022/11/30 13:29:20;;;;;;;25.17;22.77;;;7.10;99.90;;;;;;4908946;29;20306;-78
2022/11/30 13:31:55;;;;;;;26.20;23.60;;;7.10;99.90;;;;;;4904417;29;20223;-79
2022/11/30 13:34:25;;;;;;;26.07;23.30;;;7.10;99.90;;;;;;4910239;29;20724;-78
2022/11/30 13:37:00;;;;;;;27.10;24.33;;;7.10;99.90;;;;;;4911155;29;20211;-78
2022/11/30 13:39:28;;;;;;;24.20;21.93;;;7.00;99.90;;;;;;4914100;29;20656;-77
2022/11/30 13:42:33;;;;;;;24.77;22.37;;;7.00;99.90;;;;;;4912958;29;20734;-79
2022/11/30 13:45:25;;;;;;;24.17;21.90;;;7.00;99.90;;;;;;4823062;29;20239;-78
2022/11/30 13:47:54;;;;;;;24.87;22.37;;;6.90;99.90;;;;;;4903911;29;20211;-78
2022/11/30 13:50:26;;;;;;;24.33;21.90;;;7.00;99.90;;;;;;4905010;29;20673;-78
2022/11/30 13:53:32;;;;;;;24.63;22.30;;;6.90;99.90;;;;;;4909981;29;20207;-78
2022/11/30 13:56:06;;;;;;;24.63;22.33;;;6.90;99.90;;;;;;4906271;29;20221;-79
2022/11/30 13:58:34;;;;;;;23.33;21.13;;;6.90;99.90;;;;;;4915025;29;20200;-77
2022/11/30 14:01:22;;;;;;;24.53;22.03;;;6.80;99.90;;;;;;4907433;29;20242;-78
2022/11/30 14:04:34;;;;;;;24.60;22.20;;;6.90;99.90;;;;;;4915613;29;20197;-78
2022/11/30 14:07:08;;;;;;;24.77;22.40;;;6.80;99.90;;;;;;4906053;29;20697;-78
2022/11/30 14:10:07;;;;;;;24.10;21.90;;;6.80;99.90;;;;;;4909732;29;20198;-78
2022/11/30 14:12:46;;;;;;;23.73;21.67;;;6.80;99.90;;;;;;4897606;29;20738;-78
2022/11/30 14:15:45;;;;;;;25.47;23.13;;;6.80;99.90;;;;;;4908088;29;20229;-78
2022/11/30 14:18:24;;;;;;;23.47;21.27;;;6.80;99.90;;;;;;4905409;29;20207;-78
2022/11/30 14:20:56;;;;;;;25.77;22.93;;;6.80;99.90;;;;;;4902657;29;20222;-78
2022/11/30 14:23:29;;;;;;;24.80;22.40;;;6.70;99.90;;;;;;4907268;29;20299;-83
2022/11/30 14:25:59;;;;;;;25.30;22.70;;;6.70;99.90;;;;;;4893445;29;20214;-80
2022/11/30 14:28:31;;;;;;;24.00;21.53;;;6.70;99.90;;;;;;4902928;29;20679;-81
2022/11/30 14:30:59;;;;;;;24.97;22.40;;;6.70;99.90;;;;;;4910925;29;20222;-80
2022/11/30 14:33:39;;;;;;;24.43;21.83;;;6.70;99.90;;;;;;4905289;29;20207;-81
2022/11/30 14:36:08;;;;;;;24.57;22.17;;;6.70;99.90;;;;;;4904413;29;20694;-81
2022/11/30 14:38:39;;;;;;;25.50;22.80;;;6.70;99.90;;;;;;4906702;29;20701;-81
2022/11/30 14:41:06;;;;;;;24.17;21.80;;;6.70;99.90;;;;;;4907181;29;20226;-80
2022/11/30 14:43:33;;;;;;;25.63;22.93;;;6.70;99.90;;;;;;4899895;29;20194;-80
2022/11/30 14:46:02;;;;;;;25.13;22.53;;;6.70;99.90;;;;;;4895295;29;20196;-80
2022/11/30 14:48:31;;;;;;;25.73;23.10;;;6.60;99.90;;;;;;4899034;29;20262;-79
2022/11/30 14:51:01;;;;;;;25.57;22.97;;;6.60;99.90;;;;;;4905032;29;20651;-81
2022/11/30 14:53:38;;;;;;;25.57;23.07;;;6.60;99.90;;;;;;4893189;29;20863;-80
2022/11/30 14:56:15;;;;;;;26.90;23.97;;;6.60;99.90;;;;;;4903100;29;20201;-80
2022/11/30 14:58:47;;;;;;;30.03;24.73;;;6.50;99.90;;;;;;4897433;29;20213;-81
2022/11/30 15:01:18;;;;;;;27.33;24.53;;;6.50;99.90;;;;;;4907159;29;20250;-80
2022/11/30 15:03:48;;;;;;;27.07;24.27;;;6.50;99.90;;;;;;4904575;29;20194;-81
2022/11/30 15:06:18;;;;;;;25.07;22.57;;;6.50;99.90;;;;;;4908049;29;20203;-81
2022/11/30 15:08:49;;;;;;;26.23;23.57;;;6.50;99.90;;;;;;4906915;29;20203;-81
2022/11/30 15:11:18;;;;;;;27.43;24.73;;;6.50;99.90;;;;;;4909670;29;20274;-80
2022/11/30 15:13:47;;;;;;;26.20;23.50;;;6.40;99.90;;;;;;4907419;29;20300;-81
2022/11/30 15:16:20;;;;;;;27.17;24.27;;;6.40;99.90;;;;;;4905142;29;20206;-81
2022/11/30 15:18:49;;;;;;;27.17;24.17;;;6.40;99.90;;;;;;4906402;29;20195;-80
2022/11/30 15:21:19;;;;;;;26.93;24.00;;;6.40;99.90;;;;;;4907980;29;20227;-80
2022/11/30 15:23:46;;;;;;;28.87;22.90;;;6.30;99.90;;;;;;4906635;29;20208;-81
2022/11/30 15:26:17;;;;;;;24.60;22.17;;;6.30;99.90;;;;;;4909133;29;20214;-80
2022/11/30 15:28:53;;;;;;;25.67;22.87;;;6.30;99.90;;;;;;4908540;29;20197;-80
2022/11/30 15:31:20;;;;;;;26.23;23.40;;;6.30;99.90;;;;;;4908786;29;20240;-81
2022/11/30 15:33:49;;;;;;;25.23;22.57;;;6.30;99.90;;;;;;4906303;29;20205;-81
2022/11/30 15:36:17;;;;;;;24.83;22.53;;;6.30;99.90;;;;;;4902509;29;20201;-80
2022/11/30 15:38:49;;;;;;;25.93;23.17;;;6.40;99.90;;;;;;4905666;29;20213;-81
2022/11/30 15:41:19;;;;;;;24.13;21.83;;;6.40;99.90;;;;;;4908395;29;20258;-82
2022/11/30 15:43:50;;;;;;;24.50;22.13;;;6.40;99.90;;;;;;4907868;29;20206;-81
2022/11/30 15:46:29;;;;;;;26.43;23.83;;;6.40;99.90;;;;;;4907592;29;20497;-80
2022/11/30 15:49:16;;;;;;;25.67;23.17;;;6.40;99.90;;;;;;4907161;29;20197;-80
2022/11/30 15:51:45;;;;;;;24.67;22.17;;;6.40;99.90;;;;;;4901003;29;20757;-81
2022/11/30 15:54:14;;;;;;;26.20;23.50;;;6.40;99.90;;;;;;4906844;29;20226;-80
2022/11/30 15:56:41;;;;;;;24.60;22.30;;;6.40;99.90;;;;;;4907779;29;20225;-81